This is the latest recevied weather packets stored in our database for station/object K2CAT. If no packets are shown the sender has not sent any weather packets the latest 1 day(s).
| Time | Temp. | Humidity | Pressure | Rain* | Wind** | Luminosity | Snow |
|---|---|---|---|---|---|---|---|
| 1778096574 | 17.22° C | 95% | 1005.3 hPa | 0 mm | - | 80 W/m² | - |
| 1778095362 | 17.22° C | 95% | 1005.6 hPa | 0 mm | - | 74 W/m² | - |
| 1778094452 | 17.22° C | 96% | 1005.8 hPa | 0 mm | - | 105 W/m² | - |
| 1778087785 | 17.22° C | 97% | 1006.5 hPa | 1.27 mm | - | 116 W/m² | - |
| 1778087483 | 17.22° C | 97% | 1006.6 hPa | 0 mm | - | 48 W/m² | - |
| 1778084754 | 17.22° C | 96% | 1007 hPa | 1.27 mm | - | 56 W/m² | - |
| 1778080316 | 17.78° C | 90% | 1007.8 hPa | 1.27 mm | - | 39 W/m² | - |
| 1778079710 | 17.78° C | 89% | 1007.8 hPa | 1.78 mm | - | 76 W/m² | - |
| 1778077893 | 18.89° C | 83% | 1007.8 hPa | 0 mm | - | 60 W/m² | - |
| 1778076382 | 18.89° C | 80% | 1008.1 hPa | 0 mm | - | 47 W/m² | - |
| 1778075472 | 19.44° C | 77% | 1007.9 hPa | 0 mm | - | 86 W/m² | - |
| 1778074562 | 20° C | 76% | 1007.6 hPa | 0 mm | - | 48 W/m² | - |
| 1778074259 | 20° C | 75% | 1007.6 hPa | 0 mm | - | 54 W/m² | - |
| 1778073956 | 20° C | 77% | 1007.6 hPa | 0 mm | - | 75 W/m² | - |
| 1778071232 | 17.78° C | 83% | 1007.8 hPa | 0 mm | - | 35 W/m² | - |
| 1778070324 | 17.78° C | 84% | 1007.7 hPa | 0 mm | - | 39 W/m² | - |
| 1778069114 | 17.78° C | 82% | 1007.9 hPa | 0 mm | - | 32 W/m² | - |
| 1778068811 | 17.78° C | 83% | 1007.9 hPa | 0 mm | - | 31 W/m² | - |
| 1778068207 | 17.78° C | 82% | 1008.1 hPa | 0 mm | - | 35 W/m² | - |
| 1778067904 | 17.78° C | 83% | 1007.9 hPa | 0 mm | - | 26 W/m² | - |
| 1778066996 | 17.22° C | 83% | 1007.6 hPa | 0 mm | - | 44 W/m² | - |
| 1778066089 | 17.22° C | 81% | 1007.6 hPa | 0 mm | - | 23 W/m² | - |
| 1778064876 | 16.67° C | 83% | 1007.4 hPa | 0 mm | - | 21 W/m² | - |
| 1778062152 | 15.56° C | 84% | 1007.4 hPa | 0 mm | - | 8 W/m² | - |
| 1778061850 | 15.56° C | 84% | 1007.3 hPa | 0 mm | - | 5 W/m² | - |
* Rain latest hour (hover to see other rain measurements)
** Current wind speed in m/s (hover to see current wind gust speed)